createdAt,value
2019-04-11T00:02:24.763Z,6.80
2019-04-11T00:04:55.374Z,6.70
2019-04-11T00:07:25.700Z,6.70
2019-04-11T00:09:56.809Z,6.70
2019-04-11T00:12:27.550Z,6.50
2019-04-11T00:14:58.131Z,6.50
2019-04-11T00:17:28.580Z,6.60
2019-04-11T00:19:59.937Z,6.50
2019-04-11T00:22:30.858Z,6.50
2019-04-11T00:25:01.156Z,6.40
2019-04-11T00:27:31.451Z,6.50
2019-04-11T00:30:01.985Z,6.60
2019-04-11T00:32:32.255Z,6.60
2019-04-11T00:35:03.591Z,6.50
2019-04-11T00:37:34.897Z,6.40
2019-04-11T00:40:05.835Z,6.40
2019-04-11T00:42:42.920Z,6.40
2019-04-11T00:45:13.932Z,6.30
2019-04-11T00:47:44.988Z,6.30
2019-04-11T00:50:15.958Z,6.20
2019-04-11T00:52:47.563Z,5.80
2019-04-11T00:55:18.260Z,6.10
2019-04-11T00:57:49.485Z,6.10
2019-04-11T01:00:20.904Z,6.20
2019-04-11T01:02:51.659Z,6.20
2019-04-11T01:05:25.663Z,6.00
2019-04-11T01:07:56.734Z,6.20
2019-04-11T01:10:27.993Z,6.10
2019-04-11T01:12:58.776Z,6.10
2019-04-11T01:15:29.738Z,6.00
2019-04-11T01:18:00.035Z,6.10
2019-04-11T01:20:31.327Z,5.70
2019-04-11T01:23:04.792Z,6.00
2019-04-11T01:25:35.181Z,6.10
2019-04-11T01:28:06.802Z,5.90
2019-04-11T01:30:45.134Z,6.00
2019-04-11T01:33:15.735Z,6.10
2019-04-11T01:35:46.083Z,6.10
2019-04-11T01:38:16.519Z,6.10
2019-04-11T01:40:47.735Z,6.10
2019-04-11T01:43:28.122Z,6.00
2019-04-11T01:46:00.036Z,6.00
2019-04-11T01:48:48.271Z,6.00
2019-04-11T01:51:18.682Z,5.90
2019-04-11T01:53:48.987Z,5.90
2019-04-11T01:56:19.272Z,5.80
2019-04-11T01:58:49.575Z,5.80
2019-04-11T02:01:26.306Z,5.80
2019-04-11T02:04:17.053Z,5.80
2019-04-11T02:06:47.861Z,5.70
2019-04-11T02:09:18.269Z,5.70
2019-04-11T02:11:49.840Z,5.70
2019-04-11T02:14:21.460Z,5.70
2019-04-11T02:16:53.596Z,5.60
2019-04-11T02:19:24.011Z,5.60
2019-04-11T02:21:56.562Z,5.60
2019-04-11T02:24:37.163Z,5.20
2019-04-11T02:27:21.031Z,5.40
2019-04-11T02:29:51.537Z,5.60
2019-04-11T02:32:24.885Z,5.60
2019-04-11T02:34:58.522Z,5.50
2019-04-11T02:37:27.195Z,5.50
2019-04-11T02:39:58.381Z,5.50
2019-04-11T02:42:30.722Z,5.60
2019-04-11T02:45:22.653Z,5.60
2019-04-11T02:47:41.967Z,5.60
2019-04-11T02:50:14.923Z,5.60
2019-04-11T02:52:44.472Z,5.30
2019-04-11T02:55:14.922Z,5.40
2019-04-11T02:57:46.052Z,5.20
2019-04-11T03:00:18.030Z,5.30
2019-04-11T03:02:52.104Z,5.10
2019-04-11T03:05:21.555Z,5.10
2019-04-11T03:08:01.547Z,5.20
2019-04-11T03:10:33.701Z,4.90
2019-04-11T03:13:05.022Z,5.00
2019-04-11T03:15:53.877Z,5.30
2019-04-11T03:18:10.190Z,5.40
2019-04-11T03:20:48.055Z,5.40
2019-04-11T03:23:16.461Z,5.50
2019-04-11T03:25:46.938Z,5.40
2019-04-11T03:28:22.644Z,5.30
2019-04-11T03:31:17.974Z,5.40
2019-04-11T03:34:12.335Z,5.40
2019-04-11T03:38:51.410Z,5.40
2019-04-11T03:41:18.893Z,5.10
2019-04-11T03:44:02.557Z,5.20
2019-04-11T03:46:40.213Z,5.30
2019-04-11T03:49:08.038Z,5.30
2019-04-11T03:51:29.627Z,5.30
2019-04-11T03:54:01.137Z,5.40
2019-04-11T03:56:33.031Z,5.40
2019-04-11T03:59:04.052Z,5.30
2019-04-11T04:01:35.559Z,5.30
2019-04-11T04:04:06.895Z,5.10
2019-04-11T04:06:41.320Z,5.20
2019-04-11T04:09:13.145Z,5.30
2019-04-11T04:11:45.472Z,5.20
2019-04-11T04:14:28.587Z,4.80
2019-04-11T04:17:24.991Z,5.00
2019-04-11T04:20:06.661Z,5.10
2019-04-11T04:22:45.620Z,5.10
2019-04-11T04:25:16.648Z,5.20
2019-04-11T04:27:49.192Z,5.00
2019-04-11T04:30:21.742Z,5.10
2019-04-11T04:32:52.228Z,5.20
2019-04-11T04:35:25.224Z,5.20
2019-04-11T04:37:56.993Z,5.20
2019-04-11T04:40:50.052Z,5.20
2019-04-11T04:43:08.106Z,5.20
2019-04-11T04:45:58.072Z,5.30
2019-04-11T04:48:32.158Z,5.00
2019-04-11T04:51:07.544Z,5.20
2019-04-11T04:53:35.682Z,5.30
2019-04-11T04:56:08.892Z,5.10
2019-04-11T04:58:39.984Z,5.20
2019-04-11T05:01:12.174Z,5.30
2019-04-11T05:03:44.515Z,5.30
2019-04-11T05:06:16.338Z,5.30
2019-04-11T05:09:12.808Z,5.20
2019-04-11T05:11:44.646Z,5.10
2019-04-11T05:14:15.659Z,5.30
2019-04-11T05:16:46.161Z,5.40
2019-04-11T05:19:17.014Z,5.40
2019-04-11T05:22:06.555Z,5.40
2019-04-11T05:24:37.222Z,5.40
2019-04-11T05:27:08.302Z,5.50
2019-04-11T05:29:39.718Z,5.60
2019-04-11T05:32:11.326Z,5.40
2019-04-11T05:34:41.691Z,5.50
2019-04-11T05:37:13.131Z,5.50
2019-04-11T05:39:44.886Z,5.60
2019-04-11T05:42:17.733Z,5.70
2019-04-11T05:44:48.636Z,5.40
2019-04-11T05:47:19.977Z,5.10
2019-04-11T05:49:56.856Z,5.50
2019-04-11T05:52:30.656Z,5.70
2019-04-11T05:55:03.029Z,5.70
2019-04-11T05:57:38.355Z,5.60
2019-04-11T06:00:11.755Z,5.40
2019-04-11T06:02:45.668Z,5.60
2019-04-11T06:05:44.668Z,5.70
2019-04-11T06:08:22.641Z,5.60
2019-04-11T06:11:14.415Z,5.60
2019-04-11T06:13:59.555Z,5.60
2019-04-11T06:16:36.857Z,5.70
2019-04-11T06:19:30.449Z,5.70
2019-04-11T06:22:07.039Z,5.90
2019-04-11T06:24:44.667Z,5.90
2019-04-11T06:27:28.775Z,6.00
2019-04-11T06:30:22.392Z,5.70
2019-04-11T06:33:12.317Z,5.80
2019-04-11T06:36:02.159Z,6.00
2019-04-11T06:38:49.287Z,5.80
2019-04-11T06:41:48.630Z,5.60
2019-04-11T06:44:56.425Z,5.40
2019-04-11T06:47:39.060Z,5.70
2019-04-11T06:50:20.566Z,5.50
2019-04-11T06:52:52.959Z,5.70
2019-04-11T06:55:39.263Z,6.00
2019-04-11T06:58:21.358Z,5.90
2019-04-11T07:00:57.847Z,6.00
2019-04-11T07:03:36.287Z,6.00
2019-04-11T07:06:13.398Z,6.10
2019-04-11T07:08:54.694Z,6.10
2019-04-11T07:11:32.671Z,6.70
2019-04-11T07:14:22.783Z,6.70
2019-04-11T07:17:13.408Z,6.80
2019-04-11T07:20:00.943Z,6.80
2019-04-11T07:22:48.966Z,6.90
2019-04-11T07:25:58.096Z,6.70
2019-04-11T07:28:36.727Z,6.90
2019-04-11T07:31:25.468Z,7.10
2019-04-11T07:34:24.666Z,6.90
2019-04-11T07:37:12.704Z,6.50
2019-04-11T07:40:03.104Z,7.00
2019-04-11T07:42:52.937Z,7.10
2019-04-11T07:45:28.543Z,6.60
2019-04-11T07:48:07.084Z,6.80
2019-04-11T07:50:37.091Z,7.10
2019-04-11T07:53:08.588Z,7.30
2019-04-11T07:55:40.596Z,7.40
2019-04-11T07:58:25.126Z,7.60
2019-04-11T08:01:12.987Z,7.90
2019-04-11T08:04:27.830Z,8.60
2019-04-11T08:07:17.818Z,8.10
2019-04-11T08:09:53.328Z,8.70
2019-04-11T08:12:29.707Z,9.30
2019-04-11T08:15:25.855Z,9.60
2019-04-11T08:17:57.131Z,9.60
2019-04-11T08:20:53.289Z,9.30
2019-04-11T08:23:24.475Z,9.20
2019-04-11T08:26:10.247Z,9.60
2019-04-11T08:28:41.435Z,9.70
2019-04-11T08:31:33.450Z,9.90
2019-04-11T08:34:06.959Z,10.40
2019-04-11T08:37:03.360Z,10.00
2019-04-11T08:39:37.815Z,10.60
2019-04-11T08:42:33.735Z,10.50
2019-04-11T08:45:09.675Z,10.70
2019-04-11T08:47:54.351Z,10.70
2019-04-11T08:50:26.304Z,11.10
2019-04-11T08:53:14.463Z,11.20
2019-04-11T08:55:56.097Z,11.10
2019-04-11T08:58:30.856Z,10.80
2019-04-11T09:01:03.367Z,10.90
2019-04-11T09:04:02.076Z,11.40
2019-04-11T09:06:33.931Z,11.80
2019-04-11T09:09:31.473Z,11.60
2019-04-11T09:12:04.455Z,12.00
2019-04-11T09:14:56.869Z,12.40
2019-04-11T09:17:30.402Z,11.50
2019-04-11T09:20:25.947Z,11.90
2019-04-11T09:23:07.461Z,12.60
2019-04-11T09:25:59.606Z,12.40
2019-04-11T09:28:39.791Z,12.20
2019-04-11T09:31:42.065Z,11.80
2019-04-11T09:34:30.791Z,10.70
2019-04-11T09:37:19.306Z,11.40
2019-04-11T09:40:09.949Z,12.90
2019-04-11T09:42:59.668Z,13.50
2019-04-11T09:45:52.728Z,12.70
2019-04-11T09:48:31.568Z,12.00
2019-04-11T09:51:17.811Z,12.70
2019-04-11T09:53:52.965Z,13.40
2019-04-11T09:56:54.415Z,12.20
2019-04-11T09:59:31.567Z,11.60
2019-04-11T10:02:27.497Z,12.50
2019-04-11T10:05:02.614Z,12.90
2019-04-11T10:07:52.320Z,12.90
2019-04-11T10:10:43.010Z,13.50
2019-04-11T10:13:46.339Z,13.70
2019-04-11T10:16:35.885Z,12.80
2019-04-11T10:19:24.778Z,13.40
2019-04-11T10:22:04.744Z,14.10
2019-04-11T10:25:01.007Z,13.10
2019-04-11T10:27:51.013Z,13.80
2019-04-11T10:30:39.918Z,14.30
2019-04-11T10:33:28.936Z,14.60
2019-04-11T10:36:21.176Z,14.80
2019-04-11T10:39:11.175Z,14.90
2019-04-11T10:41:44.196Z,14.90
2019-04-11T10:44:18.007Z,15.60
2019-04-11T10:46:52.065Z,15.00
2019-04-11T10:49:55.346Z,14.30
2019-04-11T10:52:28.783Z,12.60
2019-04-11T10:55:25.316Z,12.80
2019-04-11T10:58:04.759Z,14.60
2019-04-11T11:00:57.695Z,15.10
2019-04-11T11:03:32.590Z,15.40
2019-04-11T11:06:03.191Z,15.90
2019-04-11T11:09:01.923Z,14.80
2019-04-11T11:11:37.129Z,14.60
2019-04-11T11:14:32.514Z,14.70
2019-04-11T11:17:09.431Z,15.20
2019-04-11T11:20:18.231Z,15.00
2019-04-11T11:23:08.229Z,14.50
2019-04-11T11:25:48.386Z,14.10
2019-04-11T11:28:16.311Z,13.90
2019-04-11T11:31:09.865Z,13.10
2019-04-11T11:33:40.690Z,12.70
2019-04-11T11:36:37.035Z,12.90
2019-04-11T11:39:17.384Z,13.10
2019-04-11T11:42:06.232Z,12.90
2019-04-11T11:44:44.670Z,12.90
2019-04-11T11:47:35.634Z,13.20
2019-04-11T11:50:07.431Z,13.10
2019-04-11T11:52:54.909Z,13.10
2019-04-11T11:55:29.462Z,13.20
2019-04-11T11:58:19.934Z,13.30
2019-04-11T12:00:53.563Z,12.60
2019-04-11T12:03:40.911Z,13.20
2019-04-11T12:06:12.658Z,13.40
2019-04-11T12:09:00.592Z,13.40
2019-04-11T12:11:32.323Z,12.20
2019-04-11T12:14:24.782Z,11.90
2019-04-11T12:17:08.427Z,12.70
2019-04-11T12:19:51.345Z,12.70
2019-04-11T12:22:18.007Z,12.80
2019-04-11T12:24:56.511Z,13.10
2019-04-11T12:27:49.975Z,12.80
2019-04-11T12:30:36.013Z,12.80
2019-04-11T12:33:21.495Z,12.70
2019-04-11T12:36:06.647Z,12.60
2019-04-11T12:39:02.934Z,12.80
2019-04-11T12:41:50.522Z,12.60
2019-04-11T12:44:49.269Z,12.50
2019-04-11T12:47:25.654Z,12.40
2019-04-11T12:50:17.801Z,12.10
2019-04-11T12:52:54.986Z,12.50
2019-04-11T12:55:31.225Z,12.50
2019-04-11T12:58:14.334Z,12.30
2019-04-11T13:01:18.708Z,12.90
2019-04-11T13:04:20.100Z,12.90
2019-04-11T13:07:08.217Z,12.80
2019-04-11T13:09:56.646Z,12.90
2019-04-11T13:13:01.097Z,12.60
2019-04-11T13:16:11.143Z,12.60
2019-04-11T13:18:44.960Z,12.30
2019-04-11T13:21:34.361Z,12.60
2019-04-11T13:24:29.954Z,12.40
2019-04-11T13:27:25.588Z,12.70
2019-04-11T13:30:17.996Z,12.80
2019-04-11T13:33:13.878Z,12.50
2019-04-11T13:36:05.949Z,12.10
2019-04-11T13:38:40.503Z,11.70
2019-04-11T13:41:31.342Z,12.30
2019-04-11T13:44:05.435Z,12.00
2019-04-11T13:46:57.875Z,12.50
2019-04-11T13:49:46.248Z,12.50
2019-04-11T13:52:36.152Z,12.70
2019-04-11T13:55:26.189Z,13.20
2019-04-11T13:58:16.139Z,13.20
2019-04-11T14:00:50.684Z,13.20
2019-04-11T14:03:48.831Z,13.50
2019-04-11T14:06:24.133Z,12.90
2019-04-11T14:09:23.853Z,12.10
2019-04-11T14:11:58.681Z,12.60
2019-04-11T14:14:52.013Z,13.10
2019-04-11T14:17:59.691Z,13.10
2019-04-11T14:20:44.465Z,12.80
2019-04-11T14:23:45.728Z,12.60
2019-04-11T14:26:47.854Z,12.90
2019-04-11T14:29:40.085Z,12.60
2019-04-11T14:32:31.617Z,12.30
2019-04-11T14:35:34.821Z,12.70
2019-04-11T14:38:16.611Z,13.00
2019-04-11T14:41:11.840Z,12.50
2019-04-11T14:43:53.411Z,13.10
2019-04-11T14:47:00.085Z,12.70
2019-04-11T14:49:31.307Z,12.90
2019-04-11T14:52:20.510Z,12.90
2019-04-11T14:54:53.827Z,12.80
2019-04-11T14:57:57.762Z,12.30
2019-04-11T15:00:44.189Z,12.40
2019-04-11T15:03:50.468Z,12.20
2019-04-11T15:06:34.289Z,12.20
2019-04-11T15:09:30.855Z,12.30
2019-04-11T15:12:23.339Z,12.70
2019-04-11T15:15:24.243Z,12.50
2019-04-11T15:17:58.011Z,12.50
2019-04-11T15:20:54.768Z,11.70
2019-04-11T15:23:24.052Z,11.80
2019-04-11T15:26:13.922Z,12.00
2019-04-11T15:29:06.868Z,12.30
2019-04-11T15:32:01.928Z,12.00
2019-04-11T15:34:37.162Z,11.70
2019-04-11T15:37:38.801Z,11.80
2019-04-11T15:40:14.218Z,11.40
2019-04-11T15:42:55.284Z,11.70
2019-04-11T15:45:46.719Z,11.50
2019-04-11T15:48:34.761Z,11.80
2019-04-11T15:51:20.019Z,11.80
2019-04-11T15:54:04.755Z,11.50
2019-04-11T15:56:58.143Z,11.60
2019-04-11T15:59:55.868Z,11.80
2019-04-11T16:02:44.168Z,12.00
2019-04-11T16:05:36.676Z,11.30
2019-04-11T16:08:28.796Z,11.40
2019-04-11T16:11:17.300Z,11.70
2019-04-11T16:13:59.052Z,11.70
2019-04-11T16:16:39.725Z,11.80
2019-04-11T16:19:36.595Z,11.90
2019-04-11T16:22:32.091Z,11.70
2019-04-11T16:25:05.142Z,11.70
2019-04-11T16:27:54.708Z,11.40
2019-04-11T16:30:25.278Z,11.50
2019-04-11T16:33:07.110Z,11.50
2019-04-11T16:35:44.597Z,11.50
2019-04-11T16:38:18.842Z,11.50
2019-04-11T16:41:09.281Z,11.50
2019-04-11T16:43:40.728Z,11.30
2019-04-11T16:46:29.282Z,11.20
2019-04-11T16:49:01.970Z,11.40
2019-04-11T16:51:32.327Z,11.40
2019-04-11T16:54:03.035Z,10.90
2019-04-11T16:56:34.006Z,11.10
2019-04-11T16:59:04.434Z,10.70
2019-04-11T17:01:36.801Z,10.70
2019-04-11T17:04:07.134Z,11.10
2019-04-11T17:06:43.676Z,11.00
2019-04-11T17:09:22.559Z,10.80
2019-04-11T17:11:56.568Z,10.90
2019-04-11T17:14:30.945Z,10.90
2019-04-11T17:17:00.996Z,10.80
2019-04-11T17:19:35.864Z,10.90
2019-04-11T17:22:04.651Z,10.80
2019-04-11T17:24:35.027Z,10.70
2019-04-11T17:27:05.469Z,10.80
2019-04-11T17:29:35.798Z,10.50
2019-04-11T17:32:06.470Z,10.60
2019-04-11T17:34:37.203Z,10.60
2019-04-11T17:37:07.841Z,10.70
2019-04-11T17:39:38.703Z,10.50
2019-04-11T17:42:10.822Z,10.60
2019-04-11T17:44:52.489Z,10.70
2019-04-11T17:47:26.805Z,10.50
2019-04-11T17:49:55.418Z,10.50
2019-04-11T17:52:35.948Z,10.60
2019-04-11T17:55:06.965Z,10.30
2019-04-11T17:57:38.057Z,10.40
2019-04-11T18:00:11.936Z,10.50
2019-04-11T18:02:48.700Z,10.60
2019-04-11T18:05:19.207Z,10.60
2019-04-11T18:07:50.059Z,10.60
2019-04-11T18:10:25.961Z,10.50
2019-04-11T18:13:00.235Z,10.50
2019-04-11T18:15:31.147Z,10.50
2019-04-11T18:18:03.138Z,10.50
2019-04-11T18:20:36.774Z,10.50
2019-04-11T18:23:06.498Z,10.70
2019-04-11T18:25:38.034Z,10.40
2019-04-11T18:28:08.480Z,10.00
2019-04-11T18:30:41.567Z,10.20
2019-04-11T18:33:11.979Z,10.20
2019-04-11T18:35:42.404Z,10.30
2019-04-11T18:38:12.760Z,10.20
2019-04-11T18:40:43.799Z,10.10
2019-04-11T18:43:16.292Z,10.30
2019-04-11T18:45:53.295Z,10.30
2019-04-11T18:48:23.968Z,10.40
2019-04-11T18:50:54.462Z,10.40
2019-04-11T18:53:30.066Z,10.50
2019-04-11T18:56:07.452Z,10.40
2019-04-11T18:58:37.859Z,10.50
2019-04-11T19:01:09.656Z,10.50
2019-04-11T19:03:41.873Z,10.50
2019-04-11T19:06:13.134Z,10.40
2019-04-11T19:08:47.972Z,10.30
2019-04-11T19:11:18.901Z,10.20
2019-04-11T19:13:52.573Z,10.30
2019-04-11T19:16:23.618Z,10.20
2019-04-11T19:18:54.355Z,10.00
2019-04-11T19:21:25.150Z,10.10
2019-04-11T19:23:58.907Z,10.00
2019-04-11T19:26:29.302Z,10.00
2019-04-11T19:29:00.321Z,10.00
2019-04-11T19:31:41.363Z,9.80
2019-04-11T19:34:11.769Z,9.90
2019-04-11T19:36:42.461Z,9.70
2019-04-11T19:39:15.071Z,9.70
2019-04-11T19:44:56.780Z,9.70
2019-04-11T19:47:27.520Z,9.70
2019-04-11T19:49:58.808Z,9.70
2019-04-11T19:52:29.876Z,9.60
2019-04-11T19:55:21.783Z,9.70
2019-04-11T19:57:54.534Z,9.60
2019-04-11T20:00:47.417Z,9.60
2019-04-11T20:03:17.832Z,9.50
2019-04-11T20:06:00.215Z,9.50
2019-04-11T20:08:30.942Z,9.50
2019-04-11T20:11:01.987Z,9.50
2019-04-11T20:13:32.889Z,9.40
2019-04-11T20:16:05.918Z,9.40
2019-04-11T20:18:36.515Z,9.50
2019-04-11T20:21:08.276Z,9.50
2019-04-11T20:23:41.751Z,9.50
2019-04-11T20:26:12.010Z,9.40
2019-04-11T20:28:42.403Z,9.40
2019-04-11T20:31:15.631Z,9.30
2019-04-11T20:33:46.439Z,9.20
2019-04-11T20:36:17.190Z,9.30
2019-04-11T20:38:47.672Z,9.30
2019-04-11T20:41:18.226Z,9.30
2019-04-11T20:43:48.685Z,9.30
2019-04-11T20:46:19.910Z,9.30
2019-04-11T20:48:50.376Z,9.30
2019-04-11T20:51:29.013Z,9.20
2019-04-11T20:54:00.114Z,9.10
2019-04-11T20:56:31.150Z,9.10
2019-04-11T20:59:01.482Z,9.10
2019-04-11T21:01:31.834Z,9.10
2019-04-11T21:04:04.717Z,9.20
2019-04-11T21:06:34.824Z,8.80
2019-04-11T21:09:08.230Z,8.90
2019-04-11T21:11:38.640Z,8.90
2019-04-11T21:14:09.250Z,9.10
2019-04-11T21:16:39.684Z,9.00
2019-04-11T21:19:10.614Z,9.10
2019-04-11T21:21:41.017Z,9.00
2019-04-11T21:24:12.052Z,9.10
2019-04-11T21:26:42.379Z,8.90
2019-04-11T21:29:13.268Z,8.90
2019-04-11T21:31:43.988Z,8.90
2019-04-11T21:34:14.639Z,9.00
2019-04-11T21:36:45.000Z,9.00
2019-04-11T21:39:15.743Z,9.00
2019-04-11T21:41:46.203Z,8.90
2019-04-11T21:44:17.669Z,9.00
2019-04-11T21:46:49.399Z,9.00
2019-04-11T21:49:20.252Z,8.90
2019-04-11T21:51:50.668Z,8.80
2019-04-11T21:54:21.066Z,8.90
2019-04-11T21:56:51.465Z,8.80
2019-04-11T21:59:21.849Z,8.80
2019-04-11T22:01:54.116Z,8.90
2019-04-11T22:04:27.068Z,9.00
2019-04-11T22:07:00.734Z,8.90
2019-04-11T22:09:29.119Z,8.80
2019-04-11T22:11:59.479Z,8.80
2019-04-11T22:14:36.086Z,8.90
2019-04-11T22:17:06.692Z,8.60
2019-04-11T22:19:37.653Z,8.70
2019-04-11T22:22:08.124Z,8.80
2019-04-11T22:24:38.507Z,8.80
2019-04-11T22:27:08.862Z,8.40
2019-04-11T22:29:42.065Z,8.60
2019-04-11T22:32:12.440Z,8.60
2019-04-11T22:34:46.883Z,8.70
2019-04-11T22:37:23.746Z,8.60
2019-04-11T22:39:54.434Z,8.70
2019-04-11T22:42:24.991Z,8.80
2019-04-11T22:44:55.362Z,8.60
2019-04-11T22:47:26.061Z,8.60
2019-04-11T22:49:56.470Z,8.60
2019-04-11T22:52:26.823Z,8.60
2019-04-11T22:55:03.405Z,8.60
2019-04-11T22:57:33.744Z,8.60
2019-04-11T23:00:04.772Z,8.60
2019-04-11T23:02:44.970Z,8.50
2019-04-11T23:05:17.300Z,8.50
2019-04-11T23:07:48.301Z,8.50
2019-04-11T23:10:19.842Z,8.50
2019-04-11T23:12:51.173Z,8.50
2019-04-11T23:15:22.132Z,8.50
2019-04-11T23:17:52.944Z,8.50
2019-04-11T23:20:23.543Z,8.60
2019-04-11T23:22:53.888Z,8.40
2019-04-11T23:25:24.198Z,8.40
2019-04-11T23:27:59.679Z,8.50
2019-04-11T23:30:30.572Z,8.50
2019-04-11T23:33:01.133Z,8.40
2019-04-11T23:35:31.491Z,8.10
2019-04-11T23:38:01.839Z,8.20
2019-04-11T23:40:32.638Z,8.40
2019-04-11T23:43:02.963Z,8.50
2019-04-11T23:45:33.757Z,8.50
2019-04-11T23:48:04.535Z,8.40
2019-04-11T23:50:34.878Z,8.50
2019-04-11T23:53:05.290Z,8.30
2019-04-11T23:55:36.250Z,8.30
2019-04-11T23:58:06.582Z,8.30
